Time;durP1;ratioP1;P1;durP2;ratioP2;P2;SDS_P1;SDS_P2;PMS_P1;PMS_P2;Temp;Humidity;BMP_temperature;BMP_pressure;BME280_temperature;BME280_humidity;BME280_pressure;Samples;Min_cycle;Max_cycle;Signal;HPM_P1;HPM_P2
2023/07/05 00:00:59;;;;;;;8.95;4.90;;;15.60;99.90;;;;;;4946933;28;20399;-61
2023/07/05 00:03:25;;;;;;;12.18;4.35;;;15.80;99.90;;;;;;4948256;28;20138;-57
2023/07/05 00:05:50;;;;;;;11.38;4.38;;;15.60;99.90;;;;;;4946978;28;20097;-57
2023/07/05 00:08:16;;;;;;;8.52;4.28;;;15.60;99.90;;;;;;4947047;28;20599;-57
2023/07/05 00:10:42;;;;;;;13.75;5.35;;;15.50;99.90;;;;;;4946902;28;20537;-63
2023/07/05 00:13:07;;;;;;;6.70;4.38;;;15.50;99.90;;;;;;4946670;28;20074;-60
2023/07/05 00:15:33;;;;;;;10.20;5.13;;;15.50;99.90;;;;;;4944824;29;20039;-61
2023/07/05 00:17:59;;;;;;;14.23;5.40;;;15.50;99.90;;;;;;4946788;28;20057;-62
2023/07/05 00:20:25;;;;;;;9.77;5.75;;;15.50;99.90;;;;;;4946117;29;20050;-54
2023/07/05 00:22:51;;;;;;;11.60;6.18;;;15.50;99.90;;;;;;4946466;28;20050;-62
2023/07/05 00:25:17;;;;;;;11.75;5.93;;;15.50;99.90;;;;;;4947392;28;20043;-58
2023/07/05 00:27:43;;;;;;;9.18;6.10;;;15.50;99.90;;;;;;4947794;28;20058;-63
2023/07/05 00:30:09;;;;;;;12.40;5.80;;;15.50;99.90;;;;;;4947854;28;20046;-60
2023/07/05 00:32:35;;;;;;;10.90;5.70;;;15.60;99.90;;;;;;4946647;28;20055;-55
2023/07/05 00:35:00;;;;;;;11.35;5.72;;;15.50;99.90;;;;;;4946848;28;20047;-61
2023/07/05 00:37:26;;;;;;;10.55;5.53;;;15.50;99.90;;;;;;4946175;28;20054;-62
2023/07/05 00:39:51;;;;;;;9.65;5.60;;;15.60;99.90;;;;;;4947284;28;20078;-53
2023/07/05 00:42:17;;;;;;;9.77;5.60;;;15.50;99.90;;;;;;4947528;28;20117;-57
2023/07/05 00:45:21;;;;;;;8.20;5.72;;;15.60;99.90;;;;;;4947041;28;20035;-57
2023/07/05 00:47:47;;;;;;;10.68;5.55;;;15.60;99.90;;;;;;4946555;29;20065;-62
2023/07/05 00:50:37;;;;;;;11.57;6.40;;;15.60;99.90;;;;;;4947881;28;20039;-55
2023/07/05 00:53:04;;;;;;;13.23;6.10;;;15.60;99.90;;;;;;4945762;28;20047;-59
2023/07/05 00:55:30;;;;;;;12.55;6.45;;;15.50;99.90;;;;;;4947202;28;20054;-57
2023/07/05 00:57:55;;;;;;;13.90;6.35;;;15.50;99.90;;;;;;4946525;28;20039;-52
2023/07/05 01:00:22;;;;;;;13.88;6.72;;;15.50;99.90;;;;;;4946903;28;20051;-62
2023/07/05 01:02:52;;;;;;;10.60;6.60;;;15.40;99.90;;;;;;4945628;28;20098;-63
2023/07/05 01:05:18;;;;;;;11.40;6.43;;;15.30;99.90;;;;;;4946237;28;20122;-57
2023/07/05 01:07:44;;;;;;;11.95;6.63;;;15.30;99.90;;;;;;4945618;28;20501;-63
2023/07/05 01:10:17;;;;;;;12.43;6.63;;;15.30;99.90;;;;;;4952187;28;20097;-61
2023/07/05 01:12:59;;;;;;;15.48;6.82;;;15.30;99.90;;;;;;4966423;28;20043;-59
2023/07/05 01:15:34;;;;;;;12.23;6.68;;;15.30;99.90;;;;;;4966142;28;20074;-61
2023/07/05 01:18:31;;;;;;;10.13;7.43;;;15.30;99.90;;;;;;4966047;28;20050;-59
2023/07/05 01:21:28;;;;;;;10.63;7.03;;;15.40;99.90;;;;;;4963394;28;20051;-63
2023/07/05 01:24:38;;;;;;;12.68;6.95;;;15.30;99.90;;;;;;4965404;28;20050;-60
2023/07/05 01:27:37;;;;;;;11.85;7.53;;;15.40;99.90;;;;;;4943776;29;20082;-62
2023/07/05 01:30:33;;;;;;;13.52;7.28;;;15.40;99.90;;;;;;4943094;29;20119;-56
2023/07/05 01:33:00;;;;;;;13.25;7.38;;;15.40;99.90;;;;;;4964473;28;20872;-57
2023/07/05 01:35:37;;;;;;;12.80;7.40;;;15.30;99.90;;;;;;4965293;28;20629;-58
2023/07/05 01:38:05;;;;;;;13.63;7.93;;;15.40;99.90;;;;;;4965061;28;20039;-57
2023/07/05 01:40:31;;;;;;;12.68;7.97;;;15.30;99.90;;;;;;4965723;28;20046;-57
2023/07/05 01:43:11;;;;;;;12.88;7.80;;;15.30;99.90;;;;;;4966084;28;20042;-61
2023/07/05 01:45:55;;;;;;;18.45;8.40;;;15.40;99.90;;;;;;4965078;28;20046;-62
2023/07/05 01:48:59;;;;;;;16.08;8.35;;;15.30;99.90;;;;;;4965831;28;20046;-58
2023/07/05 01:51:34;;;;;;;14.70;7.72;;;15.30;99.90;;;;;;4956913;28;20047;-63
2023/07/05 01:54:15;;;;;;;11.40;7.97;;;15.30;99.90;;;;;;4946565;28;20055;-63
2023/07/05 01:57:04;;;;;;;15.70;8.50;;;15.30;99.90;;;;;;4945361;28;20383;-63
2023/07/05 01:59:50;;;;;;;14.48;8.20;;;15.20;99.90;;;;;;4948215;28;20505;-62
2023/07/05 02:02:18;;;;;;;14.88;8.90;;;15.20;99.90;;;;;;4939241;29;20056;-59
2023/07/05 02:04:45;;;;;;;13.07;7.65;;;15.20;99.90;;;;;;4953166;28;20109;-56
2023/07/05 02:07:11;;;;;;;13.45;8.85;;;15.20;99.90;;;;;;4963998;28;20642;-61
2023/07/05 02:09:38;;;;;;;14.88;8.93;;;15.20;99.90;;;;;;4964532;28;20093;-62
2023/07/05 02:12:07;;;;;;;18.10;9.27;;;15.20;99.90;;;;;;4947757;28;20066;-53
2023/07/05 02:14:33;;;;;;;14.43;8.07;;;15.10;99.90;;;;;;4963826;28;20055;-61
2023/07/05 02:16:59;;;;;;;19.88;9.60;;;15.10;99.90;;;;;;4965125;28;20086;-61
2023/07/05 02:19:25;;;;;;;12.88;8.25;;;15.10;99.90;;;;;;4965793;28;20462;-61
2023/07/05 02:21:50;;;;;;;15.55;10.10;;;15.10;99.90;;;;;;4964749;28;20066;-58
2023/07/05 02:24:16;;;;;;;16.80;9.10;;;15.10;99.90;;;;;;4964332;28;20136;-59
2023/07/05 02:26:42;;;;;;;16.40;9.02;;;15.10;99.90;;;;;;4964798;28;20050;-59
2023/07/05 02:29:07;;;;;;;17.13;9.27;;;15.00;99.90;;;;;;4965500;28;20047;-61
2023/07/05 02:31:34;;;;;;;20.48;10.43;;;15.00;99.90;;;;;;4965598;28;20070;-61
2023/07/05 02:34:00;;;;;;;17.38;9.40;;;15.00;99.90;;;;;;4964304;28;20113;-58
2023/07/05 02:36:26;;;;;;;15.30;9.45;;;15.00;99.90;;;;;;4964808;28;20075;-61
2023/07/05 02:38:52;;;;;;;15.55;9.77;;;15.00;99.90;;;;;;4964063;28;20039;-63
2023/07/05 02:41:18;;;;;;;17.45;9.48;;;14.90;99.90;;;;;;4963758;28;20047;-59
2023/07/05 02:43:44;;;;;;;14.82;9.43;;;14.90;99.90;;;;;;4964356;28;20097;-53
2023/07/05 02:46:10;;;;;;;16.17;9.18;;;14.90;99.90;;;;;;4963513;28;20082;-58
2023/07/05 02:48:35;;;;;;;19.70;9.38;;;14.80;99.90;;;;;;4964974;28;20077;-60
2023/07/05 02:51:01;;;;;;;21.48;10.13;;;14.90;99.90;;;;;;4963837;28;20097;-61
2023/07/05 02:53:27;;;;;;;16.00;10.10;;;14.80;99.90;;;;;;4965176;28;20057;-63
2023/07/05 02:55:52;;;;;;;22.23;10.10;;;14.80;99.90;;;;;;4965026;28;20078;-50
2023/07/05 02:58:18;;;;;;;14.70;10.25;;;14.80;99.90;;;;;;4966725;28;20093;-57
2023/07/05 03:00:44;;;;;;;15.10;10.07;;;14.80;99.90;;;;;;4968625;28;20100;-59
2023/07/05 03:03:10;;;;;;;16.17;10.20;;;14.90;99.90;;;;;;4968349;28;20039;-63
2023/07/05 03:05:36;;;;;;;14.25;10.02;;;14.70;99.90;;;;;;4968441;28;20051;-53
2023/07/05 03:08:01;;;;;;;15.52;10.45;;;14.70;99.90;;;;;;4953910;28;20401;-60
2023/07/05 03:10:27;;;;;;;18.48;10.50;;;14.70;99.90;;;;;;4948887;28;20094;-57
2023/07/05 03:12:52;;;;;;;15.75;10.40;;;14.70;99.90;;;;;;4947852;28;20098;-56
2023/07/05 03:15:18;;;;;;;14.30;9.50;;;14.80;99.90;;;;;;4948956;28;20035;-63
2023/07/05 03:17:44;;;;;;;16.38;10.10;;;14.90;99.90;;;;;;4949296;28;20085;-60
2023/07/05 03:20:10;;;;;;;13.50;10.05;;;14.70;99.90;;;;;;4949362;28;20083;-60
2023/07/05 03:22:35;;;;;;;16.60;10.32;;;14.60;99.90;;;;;;4948417;28;20054;-54
2023/07/05 03:25:03;;;;;;;17.23;10.43;;;14.70;99.90;;;;;;4948158;28;20229;-60
2023/07/05 03:27:29;;;;;;;15.88;10.88;;;14.70;99.90;;;;;;4947717;28;20521;-63
2023/07/05 03:29:55;;;;;;;15.48;10.45;;;14.70;99.90;;;;;;4948782;28;20047;-54
2023/07/05 03:32:21;;;;;;;18.70;10.45;;;14.70;99.90;;;;;;4947540;28;20046;-56
2023/07/05 03:34:47;;;;;;;19.67;11.20;;;14.70;99.90;;;;;;4949046;28;20127;-58
2023/07/05 03:37:13;;;;;;;15.70;10.98;;;14.70;99.90;;;;;;4948152;28;20562;-61
2023/07/05 03:39:38;;;;;;;17.77;11.30;;;14.70;99.90;;;;;;4948545;28;20053;-56
2023/07/05 03:42:04;;;;;;;15.38;10.70;;;14.70;99.90;;;;;;4947909;28;20054;-62
2023/07/05 03:44:30;;;;;;;22.23;11.13;;;14.70;99.90;;;;;;4948634;28;20122;-57
2023/07/05 03:46:56;;;;;;;16.55;11.25;;;14.60;99.90;;;;;;4948611;28;20050;-57
2023/07/05 03:49:21;;;;;;;16.95;11.60;;;14.60;99.90;;;;;;4946845;29;20142;-61
2023/07/05 03:51:47;;;;;;;15.00;11.35;;;14.60;99.90;;;;;;4947634;28;20054;-60
2023/07/05 03:54:13;;;;;;;18.73;11.38;;;14.60;99.90;;;;;;4948180;28;20089;-60
2023/07/05 03:56:38;;;;;;;16.45;11.05;;;14.60;99.90;;;;;;4947824;28;20055;-54
2023/07/05 03:59:04;;;;;;;16.45;11.13;;;14.60;99.90;;;;;;4945810;29;20672;-57
2023/07/05 04:01:31;;;;;;;15.40;10.98;;;14.60;99.90;;;;;;4947887;28;20050;-54
2023/07/05 04:03:59;;;;;;;15.75;10.45;;;14.60;99.90;;;;;;4948309;28;20044;-61
2023/07/05 04:06:27;;;;;;;13.32;10.68;;;14.60;99.90;;;;;;4946876;28;20063;-56
2023/07/05 04:08:53;;;;;;;17.02;11.60;;;14.60;99.90;;;;;;4930769;29;20058;-64
2023/07/05 04:11:20;;;;;;;15.98;10.93;;;14.70;99.90;;;;;;4948073;28;20039;-62
2023/07/05 04:13:46;;;;;;;14.20;11.10;;;14.80;99.90;;;;;;4946725;29;20149;-61
2023/07/05 04:16:16;;;;;;;16.65;10.55;;;14.80;99.90;;;;;;4946670;28;20067;-58
2023/07/05 04:18:43;;;;;;;13.52;11.10;;;14.80;99.90;;;;;;4947769;28;20458;-61
2023/07/05 04:21:10;;;;;;;13.07;9.57;;;15.20;99.90;;;;;;4947510;28;20066;-61
2023/07/05 04:23:36;;;;;;;15.93;10.57;;;14.90;99.90;;;;;;4946788;28;20117;-54
2023/07/05 04:26:06;;;;;;;14.07;10.43;;;14.90;99.90;;;;;;4947571;28;20435;-63
2023/07/05 04:28:33;;;;;;;13.63;10.88;;;14.90;99.90;;;;;;4948131;28;20194;-60
2023/07/05 04:31:00;;;;;;;15.00;9.93;;;14.90;99.90;;;;;;4946790;28;20102;-61
2023/07/05 04:33:26;;;;;;;15.07;10.65;;;14.90;99.90;;;;;;4947632;28;20579;-63
2023/07/05 04:35:55;;;;;;;13.82;10.20;;;15.00;99.90;;;;;;4947288;28;20090;-62
2023/07/05 04:38:20;;;;;;;14.13;9.85;;;15.00;99.90;;;;;;4946996;28;20430;-57
2023/07/05 04:40:46;;;;;;;12.77;9.07;;;15.10;99.90;;;;;;4946723;28;20035;-57
2023/07/05 04:43:12;;;;;;;11.93;9.32;;;15.20;99.90;;;;;;4945603;28;20546;-61
2023/07/05 04:45:38;;;;;;;13.68;8.63;;;15.20;99.90;;;;;;4947911;28;20054;-61
2023/07/05 04:48:04;;;;;;;14.20;8.77;;;15.30;99.90;;;;;;4946720;28;20047;-61
2023/07/05 04:50:29;;;;;;;11.68;9.05;;;15.30;99.90;;;;;;4946384;28;20529;-59
2023/07/05 04:52:55;;;;;;;12.10;9.38;;;15.30;99.90;;;;;;4946998;28;20047;-57
2023/07/05 04:55:21;;;;;;;11.93;9.30;;;15.40;99.90;;;;;;4946726;28;20043;-61
2023/07/05 04:57:47;;;;;;;11.88;8.75;;;15.40;99.90;;;;;;4946790;28;20047;-63
2023/07/05 05:00:13;;;;;;;10.20;7.32;;;15.50;99.90;;;;;;4945605;29;20148;-59
2023/07/05 05:02:39;;;;;;;11.75;8.02;;;15.50;99.90;;;;;;4946440;28;20098;-56
2023/07/05 05:05:06;;;;;;;12.32;7.75;;;15.50;99.90;;;;;;4946244;28;20133;-58
2023/07/05 05:07:32;;;;;;;11.05;7.32;;;15.60;99.90;;;;;;4946610;28;20051;-59
2023/07/05 05:09:59;;;;;;;10.30;7.18;;;15.60;99.90;;;;;;4947397;28;20209;-62
2023/07/05 05:12:24;;;;;;;10.48;7.43;;;15.60;99.90;;;;;;4946214;28;20104;-56
2023/07/05 05:14:50;;;;;;;10.80;7.55;;;15.70;99.90;;;;;;4946869;28;20115;-57
2023/07/05 05:17:16;;;;;;;9.70;7.03;;;15.70;99.90;;;;;;4946361;28;20125;-62
2023/07/05 05:19:42;;;;;;;10.02;6.97;;;15.60;99.90;;;;;;4946130;28;20132;-63
2023/07/05 05:22:10;;;;;;;10.20;7.00;;;15.70;99.90;;;;;;4944378;28;20043;-61
2023/07/05 05:24:35;;;;;;;8.40;5.50;;;15.60;99.90;;;;;;4946377;28;20047;-59
2023/07/05 05:27:01;;;;;;;7.78;4.90;;;15.70;99.90;;;;;;4946965;28;20046;-64
2023/07/05 05:29:28;;;;;;;6.93;4.13;;;15.70;99.90;;;;;;4946669;28;20075;-59
2023/07/05 05:31:53;;;;;;;7.93;4.10;;;15.60;99.90;;;;;;4946539;28;20394;-55
2023/07/05 05:34:19;;;;;;;6.05;3.67;;;15.60;99.90;;;;;;4946244;28;20043;-57
2023/07/05 05:36:45;;;;;;;6.25;3.80;;;15.30;99.90;;;;;;4946009;28;20047;-58
2023/07/05 05:39:10;;;;;;;6.53;4.47;;;15.40;99.90;;;;;;4945324;28;20031;-61
2023/07/05 05:41:36;;;;;;;5.40;3.80;;;15.10;99.90;;;;;;4946646;28;20118;-59
2023/07/05 05:44:01;;;;;;;5.90;4.00;;;15.00;99.90;;;;;;4945763;28;20047;-58
2023/07/05 05:46:27;;;;;;;6.38;4.30;;;14.90;99.90;;;;;;4945250;28;20553;-57
2023/07/05 05:48:53;;;;;;;6.60;4.60;;;15.00;99.90;;;;;;4950319;28;20138;-55
2023/07/05 05:51:18;;;;;;;6.15;4.10;;;15.00;99.90;;;;;;4954123;28;20372;-59
2023/07/05 05:53:44;;;;;;;6.07;4.63;;;15.00;99.90;;;;;;4945691;28;20599;-61
2023/07/05 05:56:09;;;;;;;5.93;4.05;;;15.20;99.90;;;;;;4946200;28;20046;-57
2023/07/05 05:58:35;;;;;;;5.32;3.88;;;15.30;99.90;;;;;;4945256;28;20039;-58
2023/07/05 06:01:03;;;;;;;5.50;4.22;;;15.50;99.90;;;;;;4946338;28;20053;-52
2023/07/05 06:03:29;;;;;;;5.38;4.25;;;15.50;99.90;;;;;;4946103;28;20082;-59
2023/07/05 06:05:55;;;;;;;6.55;4.70;;;15.50;99.90;;;;;;4944545;28;20138;-59
2023/07/05 06:08:21;;;;;;;8.23;4.18;;;15.60;99.90;;;;;;4945546;28;20145;-57
2023/07/05 06:10:55;;;;;;;5.47;4.03;;;15.70;99.90;;;;;;4945140;28;20047;-54
2023/07/05 06:13:21;;;;;;;5.35;4.00;;;15.90;99.90;;;;;;4945661;28;20076;-60
2023/07/05 06:15:52;;;;;;;5.95;4.30;;;16.10;99.90;;;;;;4944538;28;20178;-54
2023/07/05 06:18:18;;;;;;;7.30;3.95;;;15.90;99.90;;;;;;4944372;28;20047;-60
2023/07/05 06:20:44;;;;;;;5.47;3.80;;;15.80;99.90;;;;;;4943635;28;20050;-59
2023/07/05 06:23:09;;;;;;;5.55;3.83;;;15.70;99.90;;;;;;4944648;28;20495;-56
2023/07/05 06:25:35;;;;;;;5.88;3.42;;;15.60;99.90;;;;;;4944358;29;20059;-55
2023/07/05 06:28:02;;;;;;;5.47;3.53;;;15.40;99.90;;;;;;4945190;28;20102;-61
2023/07/05 06:30:27;;;;;;;4.43;3.30;;;15.30;99.90;;;;;;4945206;28;20093;-58
2023/07/05 06:32:53;;;;;;;5.07;3.65;;;15.30;99.90;;;;;;4949044;28;20067;-61
2023/07/05 06:35:18;;;;;;;6.05;3.63;;;15.30;99.90;;;;;;4949606;28;20051;-54
2023/07/05 06:37:44;;;;;;;5.88;3.60;;;15.30;99.90;;;;;;4948487;28;20035;-56
2023/07/05 06:40:10;;;;;;;4.80;3.22;;;15.50;99.90;;;;;;4948307;28;20044;-61
2023/07/05 06:42:36;;;;;;;4.85;3.20;;;15.30;99.90;;;;;;4948821;29;20550;-61
2023/07/05 06:45:02;;;;;;;4.28;2.83;;;15.50;99.90;;;;;;4949309;28;20051;-62
2023/07/05 06:47:27;;;;;;;5.63;3.42;;;15.90;99.90;;;;;;4965460;28;20051;-58
2023/07/05 06:49:53;;;;;;;4.43;2.95;;;16.10;99.90;;;;;;4968278;28;20059;-56
2023/07/05 06:52:19;;;;;;;5.43;3.33;;;16.40;99.90;;;;;;4967502;28;20529;-61
2023/07/05 06:54:44;;;;;;;6.05;3.35;;;16.70;99.90;;;;;;4967719;28;20046;-61
2023/07/05 06:57:10;;;;;;;6.95;3.08;;;16.80;99.90;;;;;;4967995;28;20410;-51
2023/07/05 06:59:35;;;;;;;6.65;3.38;;;16.70;99.90;;;;;;4968187;28;20047;-58
2023/07/05 07:02:01;;;;;;;6.78;3.85;;;16.50;99.90;;;;;;4968356;28;20051;-56
2023/07/05 07:04:29;;;;;;;5.30;3.45;;;16.30;99.90;;;;;;4966503;28;20462;-62
2023/07/05 07:06:55;;;;;;;5.93;3.17;;;16.40;99.90;;;;;;4966993;28;20125;-61
2023/07/05 07:09:20;;;;;;;5.80;2.90;;;16.40;99.90;;;;;;4968809;28;20070;-58
2023/07/05 07:11:46;;;;;;;7.30;3.15;;;16.50;99.90;;;;;;4967977;28;20118;-60
2023/07/05 07:14:11;;;;;;;6.22;3.35;;;16.60;99.90;;;;;;4960217;28;20105;-58
2023/07/05 07:16:37;;;;;;;5.70;3.38;;;16.50;99.90;;;;;;4953497;28;20035;-55
2023/07/05 07:19:03;;;;;;;8.55;3.70;;;16.60;99.90;;;;;;4957639;28;20054;-62
2023/07/05 07:21:29;;;;;;;5.28;3.20;;;16.90;99.90;;;;;;4956068;28;20043;-59
2023/07/05 07:23:55;;;;;;;5.50;3.40;;;16.80;99.90;;;;;;4951280;28;20031;-61
2023/07/05 07:26:23;;;;;;;5.03;2.75;;;16.70;99.90;;;;;;4958157;28;20057;-58
2023/07/05 07:28:51;;;;;;;8.73;3.00;;;16.80;99.90;;;;;;4954436;28;20050;-61
2023/07/05 07:31:18;;;;;;;5.13;3.15;;;17.00;99.90;;;;;;4961250;28;20047;-58
2023/07/05 07:33:45;;;;;;;4.93;2.95;;;17.30;99.90;;;;;;4948740;28;20082;-61
2023/07/05 07:36:16;;;;;;;5.82;3.50;;;17.10;99.90;;;;;;4947112;28;20047;-55
2023/07/05 07:38:43;;;;;;;8.75;3.08;;;16.90;99.90;;;;;;4948791;28;20131;-60
2023/07/05 07:41:33;;;;;;;5.32;3.15;;;16.70;99.90;;;;;;4948889;28;20090;-53
2023/07/05 07:44:02;;;;;;;5.95;3.20;;;16.50;99.90;;;;;;4943053;28;20063;-55
2023/07/05 07:46:29;;;;;;;7.60;3.15;;;16.40;99.90;;;;;;4957147;28;20054;-60
2023/07/05 07:48:57;;;;;;;5.20;2.42;;;16.30;99.90;;;;;;4949948;28;20047;-55
2023/07/05 07:51:25;;;;;;;5.05;3.05;;;16.20;99.90;;;;;;4947911;28;20414;-61
2023/07/05 07:53:52;;;;;;;8.10;3.20;;;16.20;99.90;;;;;;4947880;28;20036;-57
2023/07/05 07:56:23;;;;;;;5.15;2.80;;;16.00;99.90;;;;;;4948208;28;20047;-62
2023/07/05 07:58:51;;;;;;;6.68;3.38;;;15.70;99.90;;;;;;4948156;28;20047;-62
2023/07/05 08:01:26;;;;;;;5.20;3.03;;;15.40;99.90;;;;;;4948026;28;20366;-59
2023/07/05 08:03:53;;;;;;;5.55;3.78;;;15.30;99.90;;;;;;4946531;28;20074;-55
2023/07/05 08:06:19;;;;;;;6.50;3.78;;;15.20;99.90;;;;;;4947151;28;20133;-57
2023/07/05 08:08:46;;;;;;;6.13;3.47;;;15.20;99.90;;;;;;4948510;28;20062;-60
2023/07/05 08:11:12;;;;;;;6.53;3.30;;;15.30;99.90;;;;;;4947828;28;20136;-54
2023/07/05 08:13:40;;;;;;;5.65;3.20;;;15.30;99.90;;;;;;4947498;28;20063;-52
2023/07/05 08:16:07;;;;;;;5.80;3.50;;;15.30;99.90;;;;;;4951816;28;20050;-57
2023/07/05 08:18:32;;;;;;;5.53;3.28;;;15.00;99.90;;;;;;4957934;28;20410;-60
2023/07/05 08:20:59;;;;;;;5.18;2.80;;;14.80;99.90;;;;;;4954562;28;20051;-58
2023/07/05 08:23:25;;;;;;;3.72;1.85;;;14.70;99.90;;;;;;4948102;28;20058;-63
2023/07/05 08:25:54;;;;;;;5.00;1.88;;;14.50;99.90;;;;;;4948086;28;20051;-62
2023/07/05 08:28:27;;;;;;;2.88;1.70;;;14.20;99.90;;;;;;4954403;28;20054;-53
2023/07/05 08:30:59;;;;;;;2.22;1.35;;;14.30;99.90;;;;;;4961044;28;20035;-56
2023/07/05 08:33:28;;;;;;;2.42;1.20;;;14.00;99.90;;;;;;4959138;28;20138;-60
2023/07/05 08:36:08;;;;;;;1.73;0.90;;;13.90;99.90;;;;;;4947451;28;20395;-64
2023/07/05 08:38:34;;;;;;;1.88;1.02;;;13.90;99.90;;;;;;4946774;28;20051;-61
2023/07/05 08:41:24;;;;;;;2.45;1.20;;;14.00;99.90;;;;;;4947105;28;20054;-51
2023/07/05 08:44:11;;;;;;;3.75;1.00;;;13.90;99.90;;;;;;4962155;28;20093;-58
2023/07/05 08:46:38;;;;;;;2.35;0.90;;;13.90;99.90;;;;;;4964863;28;20089;-56
2023/07/05 08:49:15;;;;;;;2.50;0.93;;;13.80;99.90;;;;;;4965588;28;20393;-58
2023/07/05 08:51:44;;;;;;;2.65;1.00;;;13.80;99.90;;;;;;4966029;28;20043;-52
2023/07/05 08:54:13;;;;;;;2.53;0.93;;;13.70;99.90;;;;;;4966725;28;20134;-56
2023/07/05 08:56:45;;;;;;;3.15;1.08;;;13.60;99.90;;;;;;4959652;28;20568;-55
2023/07/05 08:59:32;;;;;;;2.30;0.80;;;13.60;99.90;;;;;;4947054;28;20114;-50
2023/07/05 09:01:59;;;;;;;1.95;0.77;;;13.40;99.90;;;;;;4947501;28;20363;-60
2023/07/05 09:04:29;;;;;;;1.48;0.70;;;13.40;99.90;;;;;;4946611;28;20039;-59
2023/07/05 09:07:22;;;;;;;2.28;0.88;;;13.30;99.90;;;;;;4948578;28;20141;-57
2023/07/05 09:10:18;;;;;;;2.90;1.00;;;13.40;99.90;;;;;;4947134;28;20051;-60
2023/07/05 09:13:09;;;;;;;2.53;0.88;;;13.30;99.90;;;;;;4963624;28;20050;-58
2023/07/05 09:15:41;;;;;;;4.15;0.85;;;13.30;99.90;;;;;;4956712;28;20051;-60
2023/07/05 09:18:16;;;;;;;4.18;1.10;;;13.30;99.90;;;;;;4957797;28;20039;-60
2023/07/05 09:21:00;;;;;;;4.10;0.90;;;13.30;99.90;;;;;;4945912;28;20118;-52
2023/07/05 09:23:29;;;;;;;1.58;0.80;;;13.30;99.90;;;;;;4955572;28;20055;-55
2023/07/05 09:26:01;;;;;;;4.82;1.27;;;13.30;99.90;;;;;;4946204;28;20035;-51
2023/07/05 09:28:37;;;;;;;2.63;1.00;;;13.20;99.90;;;;;;4946588;28;20074;-58
2023/07/05 09:31:12;;;;;;;2.92;1.20;;;13.10;99.90;;;;;;4946370;28;20600;-61
2023/07/05 09:33:55;;;;;;;1.92;0.90;;;13.00;99.90;;;;;;4947124;28;20049;-60
2023/07/05 09:36:23;;;;;;;3.10;1.00;;;13.00;99.90;;;;;;4946086;28;20047;-56
2023/07/05 09:39:06;;;;;;;2.22;1.13;;;12.90;99.90;;;;;;4946323;28;20047;-62
2023/07/05 09:41:46;;;;;;;3.30;0.98;;;13.00;99.90;;;;;;4946382;28;20039;-56
2023/07/05 09:44:13;;;;;;;2.83;1.10;;;13.00;99.90;;;;;;4946636;28;20047;-61
2023/07/05 09:46:39;;;;;;;3.40;1.15;;;13.00;99.90;;;;;;4946780;28;20050;-58
2023/07/05 09:49:15;;;;;;;3.28;0.93;;;13.10;99.90;;;;;;4951126;28;20630;-57
2023/07/05 09:51:44;;;;;;;1.48;0.80;;;13.10;99.90;;;;;;4953531;28;20036;-56
2023/07/05 09:54:21;;;;;;;2.78;1.00;;;13.10;99.90;;;;;;4958930;28;20086;-58
2023/07/05 09:57:01;;;;;;;2.55;0.95;;;13.20;99.90;;;;;;4945778;28;20043;-56
2023/07/05 09:59:27;;;;;;;2.88;1.00;;;13.10;99.90;;;;;;4956741;28;20042;-61
2023/07/05 10:02:15;;;;;;;2.42;1.02;;;13.10;99.90;;;;;;4965913;28;20042;-62
2023/07/05 10:04:47;;;;;;;3.72;1.40;;;13.10;99.90;;;;;;4963305;28;20055;-57
2023/07/05 10:07:21;;;;;;;6.13;1.67;;;13.10;99.90;;;;;;4963707;28;20130;-60
2023/07/05 10:10:09;;;;;;;3.70;1.05;;;13.10;99.90;;;;;;4964430;28;20138;-58
2023/07/05 10:12:40;;;;;;;3.85;1.30;;;13.20;99.90;;;;;;4964941;28;20058;-58
2023/07/05 10:15:24;;;;;;;4.28;1.65;;;13.20;99.90;;;;;;4965788;28;20049;-52
2023/07/05 10:17:53;;;;;;;4.45;1.27;;;13.30;99.90;;;;;;4965722;28;20102;-60
2023/07/05 10:20:30;;;;;;;5.45;1.30;;;13.30;99.90;;;;;;4964158;28;20061;-50
2023/07/05 10:23:17;;;;;;;5.10;1.25;;;13.40;99.90;;;;;;4964915;28;20055;-58
2023/07/05 10:25:44;;;;;;;6.78;1.40;;;13.40;99.90;;;;;;4965170;28;20074;-61
2023/07/05 10:28:15;;;;;;;4.15;1.25;;;13.60;99.90;;;;;;4960318;28;20126;-59
2023/07/05 10:31:24;;;;;;;5.93;1.33;;;13.70;99.90;;;;;;4962874;28;20039;-58
2023/07/05 10:33:50;;;;;;;6.35;1.20;;;13.90;99.90;;;;;;4938233;28;20556;-56
2023/07/05 10:36:19;;;;;;;5.72;1.50;;;14.10;99.90;;;;;;4962081;28;20043;-54
2023/07/05 10:38:47;;;;;;;5.35;1.40;;;14.20;99.90;;;;;;4964384;28;20054;-53
2023/07/05 10:41:19;;;;;;;5.22;1.40;;;14.10;99.90;;;;;;4963964;28;20119;-61
2023/07/05 10:43:56;;;;;;;4.70;1.55;;;14.20;99.90;;;;;;4964746;28;20058;-59
2023/07/05 10:46:25;;;;;;;8.25;1.75;;;14.20;99.90;;;;;;4963233;28;20046;-61
2023/07/05 10:48:52;;;;;;;8.18;1.80;;;14.30;99.90;;;;;;4962605;28;20105;-58
2023/07/05 10:51:24;;;;;;;10.43;1.73;;;14.50;99.90;;;;;;4962384;28;20039;-59
2023/07/05 10:54:02;;;;;;;7.75;2.22;;;14.40;99.90;;;;;;4964534;28;20055;-60
2023/07/05 10:56:33;;;;;;;8.18;2.17;;;14.50;99.90;;;;;;4964026;28;20411;-54
2023/07/05 10:59:26;;;;;;;5.95;2.10;;;14.50;99.90;;;;;;4964454;28;20804;-58
2023/07/05 11:01:57;;;;;;;6.95;2.05;;;14.60;99.90;;;;;;4963463;28;20061;-59
2023/07/05 11:04:29;;;;;;;8.23;1.80;;;14.70;99.90;;;;;;4960235;28;20038;-47
2023/07/05 11:07:00;;;;;;;7.63;1.98;;;14.90;99.90;;;;;;4962155;28;20051;-48
2023/07/05 11:09:28;;;;;;;6.47;1.88;;;15.00;99.90;;;;;;4961870;28;20045;-56
2023/07/05 11:11:59;;;;;;;5.70;1.55;;;15.00;99.90;;;;;;4962916;28;20043;-48
2023/07/05 11:14:28;;;;;;;8.50;1.80;;;15.10;99.90;;;;;;4963965;28;20047;-47
2023/07/05 11:16:56;;;;;;;7.43;2.13;;;15.10;99.90;;;;;;4963981;28;20058;-54
2023/07/05 11:19:30;;;;;;;7.53;1.70;;;15.20;99.90;;;;;;4963074;28;20499;-48
2023/07/05 11:21:57;;;;;;;9.38;1.88;;;15.20;99.90;;;;;;4967923;28;20356;-50
2023/07/05 11:24:38;;;;;;;10.50;1.92;;;15.10;99.90;;;;;;4967374;28;20039;-53
2023/07/05 11:27:24;;;;;;;7.25;1.77;;;15.20;99.90;;;;;;4968171;28;20039;-56
2023/07/05 11:29:52;;;;;;;10.90;2.03;;;15.30;99.90;;;;;;4966101;28;20047;-55
2023/07/05 11:32:19;;;;;;;5.43;1.60;;;15.40;99.90;;;;;;4968366;28;20114;-49
2023/07/05 11:34:54;;;;;;;7.80;2.15;;;15.60;99.90;;;;;;4967493;28;20061;-57
2023/07/05 11:37:22;;;;;;;8.35;2.40;;;15.60;99.90;;;;;;4962994;28;20712;-52
2023/07/05 11:39:50;;;;;;;9.95;2.60;;;15.50;99.90;;;;;;4964196;28;20101;-50
2023/07/05 11:42:16;;;;;;;6.90;2.13;;;15.60;99.90;;;;;;4964170;28;20074;-51
2023/07/05 11:44:47;;;;;;;8.30;2.17;;;15.70;99.90;;;;;;4964537;28;20517;-50
2023/07/05 11:47:24;;;;;;;7.68;1.85;;;15.80;99.90;;;;;;4965015;28;20101;-62
2023/07/05 11:50:07;;;;;;;8.18;1.95;;;15.80;99.90;;;;;;4959741;28;20109;-59
2023/07/05 11:52:41;;;;;;;8.23;2.00;;;15.90;99.90;;;;;;4965893;28;20524;-57
2023/07/05 11:55:19;;;;;;;7.50;1.60;;;15.90;99.90;;;;;;4963034;28;20062;-51
2023/07/05 11:57:57;;;;;;;4.75;1.25;;;16.00;99.90;;;;;;4966455;28;20045;-52
2023/07/05 12:00:41;;;;;;;3.72;1.20;;;16.20;99.90;;;;;;4967008;28;20046;-58
2023/07/05 12:03:21;;;;;;;5.32;1.48;;;16.10;99.90;;;;;;4964297;28;20046;-55
2023/07/05 12:05:58;;;;;;;3.42;1.23;;;16.00;99.90;;;;;;4962668;28;20062;-59
2023/07/05 12:08:33;;;;;;;3.35;1.20;;;15.80;99.90;;;;;;4965862;28;20560;-53
2023/07/05 12:10:59;;;;;;;5.68;1.20;;;15.60;99.90;;;;;;4966143;28;20058;-59
2023/07/05 12:13:30;;;;;;;6.47;1.30;;;15.40;99.90;;;;;;4963839;28;20058;-59
2023/07/05 12:15:57;;;;;;;4.35;1.42;;;15.20;99.90;;;;;;4965274;28;20109;-59
2023/07/05 12:18:23;;;;;;;3.95;1.63;;;15.00;99.90;;;;;;4965811;28;20073;-50
2023/07/05 12:20:55;;;;;;;7.38;1.52;;;15.00;99.90;;;;;;4964191;28;20047;-57
2023/07/05 12:23:23;;;;;;;4.18;1.25;;;14.90;99.90;;;;;;4966431;28;20516;-50
2023/07/05 12:25:52;;;;;;;5.78;1.30;;;14.90;99.90;;;;;;4963683;28;20063;-61
2023/07/05 12:28:21;;;;;;;6.80;1.27;;;15.10;99.90;;;;;;4964158;28;20666;-56
2023/07/05 12:30:47;;;;;;;4.45;1.10;;;15.10;99.90;;;;;;4962396;28;20476;-53
2023/07/05 12:33:35;;;;;;;5.95;1.17;;;15.20;99.90;;;;;;4965104;28;20101;-45
2023/07/05 12:36:15;;;;;;;6.10;1.20;;;15.00;99.90;;;;;;4964067;28;20035;-52
2023/07/05 12:38:44;;;;;;;5.18;1.33;;;14.80;99.90;;;;;;4965932;28;20035;-57
2023/07/05 12:41:24;;;;;;;3.78;1.15;;;14.60;99.90;;;;;;4962953;28;20043;-53
2023/07/05 12:43:59;;;;;;;3.83;1.33;;;14.30;99.90;;;;;;4959044;28;20043;-53
2023/07/05 12:46:26;;;;;;;4.50;1.48;;;14.10;99.90;;;;;;4965742;28;20045;-53
2023/07/05 12:48:52;;;;;;;4.53;1.65;;;14.00;99.90;;;;;;4966350;28;20063;-45
2023/07/05 12:51:21;;;;;;;3.75;1.40;;;13.80;99.90;;;;;;4964743;28;20162;-49
2023/07/05 12:53:48;;;;;;;6.53;1.95;;;13.70;99.90;;;;;;4964494;28;20047;-55
2023/07/05 12:56:17;;;;;;;3.35;1.30;;;13.60;99.90;;;;;;4964843;28;20091;-49